sensor_id;sensor_type;location;lat;lon;timestamp;P1;durP1;ratioP1;P2;durP2;ratioP2
37303;SDS011;23188;51.188;16.374;2022-10-18T00:01:16;10.50;;;6.65;;
37303;SDS011;23188;51.188;16.374;2022-10-18T00:05:19;11.10;;;7.08;;
37303;SDS011;23188;51.188;16.374;2022-10-18T00:09:20;13.43;;;8.38;;
37303;SDS011;23188;51.188;16.374;2022-10-18T00:13:22;10.82;;;7.85;;
37303;SDS011;23188;51.188;16.374;2022-10-18T00:17:24;10.65;;;7.65;;
37303;SDS011;23188;51.188;16.374;2022-10-18T00:21:25;8.33;;;7.40;;
37303;SDS011;23188;51.188;16.374;2022-10-18T00:25:26;9.03;;;8.15;;
37303;SDS011;23188;51.188;16.374;2022-10-18T00:29:28;11.90;;;8.50;;
37303;SDS011;23188;51.188;16.374;2022-10-18T00:33:29;11.70;;;7.42;;
37303;SDS011;23188;51.188;16.374;2022-10-18T00:37:30;16.27;;;7.97;;
37303;SDS011;23188;51.188;16.374;2022-10-18T00:41:33;10.13;;;7.72;;
37303;SDS011;23188;51.188;16.374;2022-10-18T00:45:37;9.88;;;7.22;;
37303;SDS011;23188;51.188;16.374;2022-10-18T00:49:42;9.65;;;7.78;;
37303;SDS011;23188;51.188;16.374;2022-10-18T00:53:48;13.75;;;8.70;;
37303;SDS011;23188;51.188;16.374;2022-10-18T00:57:49;12.15;;;9.13;;
37303;SDS011;23188;51.188;16.374;2022-10-18T01:01:51;13.78;;;7.95;;
37303;SDS011;23188;51.188;16.374;2022-10-18T01:05:53;10.35;;;8.95;;
37303;SDS011;23188;51.188;16.374;2022-10-18T01:14:31;11.33;;;7.92;;
37303;SDS011;23188;51.188;16.374;2022-10-18T01:32:09;8.78;;;7.53;;
37303;SDS011;23188;51.188;16.374;2022-10-18T01:36:20;8.80;;;6.87;;
37303;SDS011;23188;51.188;16.374;2022-10-18T01:40:33;10.43;;;8.08;;
37303;SDS011;23188;51.188;16.374;2022-10-18T01:44:36;15.68;;;8.58;;
37303;SDS011;23188;51.188;16.374;2022-10-18T01:48:40;10.60;;;9.10;;
37303;SDS011;23188;51.188;16.374;2022-10-18T01:52:48;12.33;;;7.65;;
37303;SDS011;23188;51.188;16.374;2022-10-18T01:56:59;10.65;;;8.25;;
37303;SDS011;23188;51.188;16.374;2022-10-18T02:05:47;13.30;;;8.20;;
37303;SDS011;23188;51.188;16.374;2022-10-18T02:10:07;12.30;;;8.90;;
37303;SDS011;23188;51.188;16.374;2022-10-18T02:14:25;11.78;;;8.70;;
37303;SDS011;23188;51.188;16.374;2022-10-18T02:18:28;11.40;;;7.47;;
37303;SDS011;23188;51.188;16.374;2022-10-18T02:22:41;8.13;;;7.15;;
37303;SDS011;23188;51.188;16.374;2022-10-18T02:26:45;14.73;;;9.20;;
37303;SDS011;23188;51.188;16.374;2022-10-18T02:31:07;10.68;;;7.10;;
37303;SDS011;23188;51.188;16.374;2022-10-18T02:35:29;11.18;;;7.50;;
37303;SDS011;23188;51.188;16.374;2022-10-18T02:39:31;11.10;;;7.67;;
37303;SDS011;23188;51.188;16.374;2022-10-18T02:43:36;10.43;;;9.43;;
37303;SDS011;23188;51.188;16.374;2022-10-18T02:47:38;13.35;;;9.63;;
37303;SDS011;23188;51.188;16.374;2022-10-18T02:51:39;11.20;;;9.75;;
37303;SDS011;23188;51.188;16.374;2022-10-18T02:55:40;9.60;;;8.38;;
37303;SDS011;23188;51.188;16.374;2022-10-18T02:59:41;10.43;;;8.28;;
37303;SDS011;23188;51.188;16.374;2022-10-18T03:03:42;12.88;;;10.03;;
37303;SDS011;23188;51.188;16.374;2022-10-18T03:07:43;11.40;;;9.00;;
37303;SDS011;23188;51.188;16.374;2022-10-18T03:11:44;11.22;;;9.10;;
37303;SDS011;23188;51.188;16.374;2022-10-18T03:15:46;11.53;;;8.85;;
37303;SDS011;23188;51.188;16.374;2022-10-18T03:19:48;16.37;;;10.23;;
37303;SDS011;23188;51.188;16.374;2022-10-18T03:23:49;19.02;;;9.40;;
37303;SDS011;23188;51.188;16.374;2022-10-18T03:27:50;19.48;;;12.00;;
37303;SDS011;23188;51.188;16.374;2022-10-18T03:31:51;10.20;;;9.13;;
37303;SDS011;23188;51.188;16.374;2022-10-18T03:35:52;15.10;;;9.20;;
37303;SDS011;23188;51.188;16.374;2022-10-18T03:39:53;15.08;;;10.82;;
37303;SDS011;23188;51.188;16.374;2022-10-18T03:43:55;14.13;;;10.40;;
37303;SDS011;23188;51.188;16.374;2022-10-18T03:47:56;18.27;;;12.23;;
37303;SDS011;23188;51.188;16.374;2022-10-18T03:51:57;13.70;;;12.00;;
37303;SDS011;23188;51.188;16.374;2022-10-18T03:55:58;13.55;;;10.20;;
37303;SDS011;23188;51.188;16.374;2022-10-18T03:59:59;15.10;;;9.95;;
37303;SDS011;23188;51.188;16.374;2022-10-18T04:04:00;16.87;;;13.00;;
37303;SDS011;23188;51.188;16.374;2022-10-18T04:08:01;12.73;;;11.22;;
37303;SDS011;23188;51.188;16.374;2022-10-18T04:12:04;14.85;;;10.68;;
37303;SDS011;23188;51.188;16.374;2022-10-18T04:16:05;17.30;;;12.90;;
37303;SDS011;23188;51.188;16.374;2022-10-18T04:20:07;17.70;;;12.25;;
37303;SDS011;23188;51.188;16.374;2022-10-18T04:24:09;20.08;;;14.28;;
37303;SDS011;23188;51.188;16.374;2022-10-18T04:28:10;19.82;;;13.60;;
37303;SDS011;23188;51.188;16.374;2022-10-18T04:32:11;14.50;;;12.50;;
37303;SDS011;23188;51.188;16.374;2022-10-18T04:36:12;13.72;;;11.53;;
37303;SDS011;23188;51.188;16.374;2022-10-18T04:40:14;18.85;;;12.88;;
37303;SDS011;23188;51.188;16.374;2022-10-18T04:44:15;42.43;;;16.02;;
37303;SDS011;23188;51.188;16.374;2022-10-18T04:48:17;13.72;;;11.03;;
37303;SDS011;23188;51.188;16.374;2022-10-18T04:52:18;16.87;;;11.97;;
37303;SDS011;23188;51.188;16.374;2022-10-18T04:56:19;17.15;;;13.40;;
37303;SDS011;23188;51.188;16.374;2022-10-18T05:00:21;16.35;;;10.78;;
37303;SDS011;23188;51.188;16.374;2022-10-18T05:04:22;16.32;;;13.13;;
37303;SDS011;23188;51.188;16.374;2022-10-18T05:08:23;14.35;;;11.68;;
37303;SDS011;23188;51.188;16.374;2022-10-18T05:12:24;13.93;;;11.08;;
37303;SDS011;23188;51.188;16.374;2022-10-18T05:16:25;16.48;;;11.93;;
37303;SDS011;23188;51.188;16.374;2022-10-18T05:20:27;14.47;;;11.88;;
37303;SDS011;23188;51.188;16.374;2022-10-18T05:24:29;17.07;;;11.35;;
37303;SDS011;23188;51.188;16.374;2022-10-18T05:28:30;14.70;;;11.15;;
37303;SDS011;23188;51.188;16.374;2022-10-18T05:32:31;18.77;;;14.10;;
37303;SDS011;23188;51.188;16.374;2022-10-18T05:36:32;17.70;;;12.55;;
37303;SDS011;23188;51.188;16.374;2022-10-18T05:40:33;16.42;;;11.28;;
37303;SDS011;23188;51.188;16.374;2022-10-18T05:44:39;20.50;;;13.03;;
37303;SDS011;23188;51.188;16.374;2022-10-18T05:48:40;17.42;;;12.28;;
37303;SDS011;23188;51.188;16.374;2022-10-18T05:52:42;13.10;;;9.15;;
37303;SDS011;23188;51.188;16.374;2022-10-18T05:56:43;16.30;;;10.30;;
37303;SDS011;23188;51.188;16.374;2022-10-18T06:00:44;15.70;;;10.55;;
37303;SDS011;23188;51.188;16.374;2022-10-18T06:04:45;13.93;;;9.20;;
37303;SDS011;23188;51.188;16.374;2022-10-18T06:08:47;14.80;;;9.85;;
37303;SDS011;23188;51.188;16.374;2022-10-18T06:12:50;10.32;;;8.38;;
37303;SDS011;23188;51.188;16.374;2022-10-18T06:16:51;12.88;;;11.53;;
37303;SDS011;23188;51.188;16.374;2022-10-18T06:20:58;12.35;;;9.23;;
37303;SDS011;23188;51.188;16.374;2022-10-18T06:24:59;11.40;;;8.70;;
37303;SDS011;23188;51.188;16.374;2022-10-18T06:29:00;16.67;;;9.68;;
37303;SDS011;23188;51.188;16.374;2022-10-18T06:33:01;14.00;;;8.63;;
37303;SDS011;23188;51.188;16.374;2022-10-18T06:37:02;12.82;;;9.85;;
37303;SDS011;23188;51.188;16.374;2022-10-18T06:41:04;10.08;;;8.75;;
37303;SDS011;23188;51.188;16.374;2022-10-18T06:45:06;13.18;;;7.87;;
37303;SDS011;23188;51.188;16.374;2022-10-18T06:49:08;8.70;;;7.80;;
37303;SDS011;23188;51.188;16.374;2022-10-18T06:53:10;21.25;;;8.48;;
37303;SDS011;23188;51.188;16.374;2022-10-18T06:57:11;10.75;;;8.88;;
37303;SDS011;23188;51.188;16.374;2022-10-18T07:01:13;10.25;;;7.92;;
37303;SDS011;23188;51.188;16.374;2022-10-18T07:05:16;9.08;;;8.18;;
37303;SDS011;23188;51.188;16.374;2022-10-18T07:09:17;12.15;;;7.70;;
37303;SDS011;23188;51.188;16.374;2022-10-18T07:13:19;9.95;;;7.22;;
37303;SDS011;23188;51.188;16.374;2022-10-18T07:17:20;11.48;;;9.23;;
37303;SDS011;23188;51.188;16.374;2022-10-18T07:21:22;12.82;;;7.80;;
37303;SDS011;23188;51.188;16.374;2022-10-18T07:25:25;17.10;;;8.28;;
37303;SDS011;23188;51.188;16.374;2022-10-18T07:29:26;11.70;;;8.50;;
37303;SDS011;23188;51.188;16.374;2022-10-18T07:33:27;35.75;;;9.58;;
37303;SDS011;23188;51.188;16.374;2022-10-18T07:37:29;11.68;;;8.55;;
37303;SDS011;23188;51.188;16.374;2022-10-18T07:41:30;10.10;;;7.80;;
37303;SDS011;23188;51.188;16.374;2022-10-18T07:45:33;11.00;;;9.65;;
37303;SDS011;23188;51.188;16.374;2022-10-18T07:49:34;17.98;;;11.73;;
37303;SDS011;23188;51.188;16.374;2022-10-18T07:53:35;14.68;;;10.70;;
37303;SDS011;23188;51.188;16.374;2022-10-18T07:57:36;14.05;;;10.48;;
37303;SDS011;23188;51.188;16.374;2022-10-18T08:01:37;13.35;;;10.63;;
37303;SDS011;23188;51.188;16.374;2022-10-18T08:05:38;15.32;;;10.38;;
37303;SDS011;23188;51.188;16.374;2022-10-18T08:09:39;18.45;;;13.53;;
37303;SDS011;23188;51.188;16.374;2022-10-18T08:13:41;18.35;;;14.03;;
37303;SDS011;23188;51.188;16.374;2022-10-18T08:17:43;15.03;;;12.73;;
37303;SDS011;23188;51.188;16.374;2022-10-18T08:21:44;11.00;;;8.23;;
37303;SDS011;23188;51.188;16.374;2022-10-18T08:25:45;11.63;;;8.13;;
37303;SDS011;23188;51.188;16.374;2022-10-18T08:29:47;13.18;;;9.53;;
37303;SDS011;23188;51.188;16.374;2022-10-18T08:33:48;15.85;;;8.70;;
37303;SDS011;23188;51.188;16.374;2022-10-18T08:37:49;13.90;;;9.20;;
37303;SDS011;23188;51.188;16.374;2022-10-18T08:41:57;9.00;;;7.67;;
37303;SDS011;23188;51.188;16.374;2022-10-18T08:46:15;9.95;;;8.45;;
37303;SDS011;23188;51.188;16.374;2022-10-18T08:50:20;13.78;;;8.08;;
37303;SDS011;23188;51.188;16.374;2022-10-18T08:54:28;11.12;;;7.80;;
37303;SDS011;23188;51.188;16.374;2022-10-18T08:58:43;11.48;;;9.38;;
37303;SDS011;23188;51.188;16.374;2022-10-18T09:11:57;13.25;;;8.75;;
37303;SDS011;23188;51.188;16.374;2022-10-18T09:16:03;16.85;;;9.15;;
37303;SDS011;23188;51.188;16.374;2022-10-18T09:29:06;14.65;;;8.83;;
37303;SDS011;23188;51.188;16.374;2022-10-18T09:33:44;16.90;;;9.83;;
37303;SDS011;23188;51.188;16.374;2022-10-18T09:38:02;11.95;;;8.85;;
37303;SDS011;23188;51.188;16.374;2022-10-18T09:42:13;10.48;;;7.58;;
37303;SDS011;23188;51.188;16.374;2022-10-18T09:46:25;12.30;;;9.45;;
37303;SDS011;23188;51.188;16.374;2022-10-18T09:55:02;15.75;;;11.10;;
37303;SDS011;23188;51.188;16.374;2022-10-18T09:59:09;15.72;;;10.05;;
37303;SDS011;23188;51.188;16.374;2022-10-18T10:03:13;16.57;;;9.10;;
37303;SDS011;23188;51.188;16.374;2022-10-18T10:07:20;12.28;;;9.65;;
37303;SDS011;23188;51.188;16.374;2022-10-18T10:11:29;15.25;;;9.18;;
37303;SDS011;23188;51.188;16.374;2022-10-18T10:15:59;10.75;;;7.70;;
37303;SDS011;23188;51.188;16.374;2022-10-18T10:20:01;15.13;;;9.35;;
37303;SDS011;23188;51.188;16.374;2022-10-18T10:24:26;19.30;;;11.00;;
37303;SDS011;23188;51.188;16.374;2022-10-18T10:28:28;12.70;;;10.20;;
37303;SDS011;23188;51.188;16.374;2022-10-18T10:32:43;11.40;;;8.83;;
37303;SDS011;23188;51.188;16.374;2022-10-18T10:36:49;14.75;;;10.53;;
37303;SDS011;23188;51.188;16.374;2022-10-18T10:44:55;12.53;;;10.25;;
37303;SDS011;23188;51.188;16.374;2022-10-18T10:48:57;19.15;;;11.70;;
37303;SDS011;23188;51.188;16.374;2022-10-18T10:53:00;17.75;;;11.73;;
37303;SDS011;23188;51.188;16.374;2022-10-18T10:57:04;15.10;;;11.30;;
37303;SDS011;23188;51.188;16.374;2022-10-18T11:05:40;21.02;;;13.32;;
37303;SDS011;23188;51.188;16.374;2022-10-18T11:14:17;24.35;;;15.20;;
37303;SDS011;23188;51.188;16.374;2022-10-18T11:18:35;22.07;;;14.18;;
37303;SDS011;23188;51.188;16.374;2022-10-18T11:22:43;19.75;;;15.90;;
37303;SDS011;23188;51.188;16.374;2022-10-18T11:49:18;19.92;;;15.43;;
37303;SDS011;23188;51.188;16.374;2022-10-18T11:53:56;23.67;;;16.85;;
37303;SDS011;23188;51.188;16.374;2022-10-18T11:58:21;22.87;;;14.38;;
37303;SDS011;23188;51.188;16.374;2022-10-18T12:02:40;17.95;;;15.48;;
37303;SDS011;23188;51.188;16.374;2022-10-18T12:07:06;18.23;;;16.20;;
37303;SDS011;23188;51.188;16.374;2022-10-18T12:11:12;24.97;;;17.33;;
37303;SDS011;23188;51.188;16.374;2022-10-18T12:15:19;24.50;;;17.92;;
37303;SDS011;23188;51.188;16.374;2022-10-18T12:19:25;22.45;;;18.45;;
37303;SDS011;23188;51.188;16.374;2022-10-18T12:27:47;22.95;;;16.25;;
37303;SDS011;23188;51.188;16.374;2022-10-18T12:32:00;25.48;;;18.67;;
37303;SDS011;23188;51.188;16.374;2022-10-18T12:36:23;26.17;;;18.50;;
37303;SDS011;23188;51.188;16.374;2022-10-18T12:44:46;20.17;;;15.10;;
37303;SDS011;23188;51.188;16.374;2022-10-18T12:49:10;23.65;;;13.90;;
37303;SDS011;23188;51.188;16.374;2022-10-18T12:57:27;17.15;;;14.98;;
37303;SDS011;23188;51.188;16.374;2022-10-18T13:05:57;22.02;;;17.37;;
37303;SDS011;23188;51.188;16.374;2022-10-18T13:14:30;25.10;;;14.90;;
37303;SDS011;23188;51.188;16.374;2022-10-18T13:19:12;20.20;;;16.07;;
37303;SDS011;23188;51.188;16.374;2022-10-18T13:23:30;18.55;;;14.07;;
37303;SDS011;23188;51.188;16.374;2022-10-18T13:31:54;19.30;;;15.20;;
37303;SDS011;23188;51.188;16.374;2022-10-18T13:40:24;19.80;;;17.52;;
37303;SDS011;23188;51.188;16.374;2022-10-18T13:44:29;29.57;;;13.75;;
37303;SDS011;23188;51.188;16.374;2022-10-18T14:06:37;13.85;;;11.70;;
37303;SDS011;23188;51.188;16.374;2022-10-18T14:10:50;9.85;;;8.38;;
37303;SDS011;23188;51.188;16.374;2022-10-18T14:19:22;6.62;;;6.00;;
37303;SDS011;23188;51.188;16.374;2022-10-18T14:23:40;3.22;;;2.92;;
37303;SDS011;23188;51.188;16.374;2022-10-18T14:27:41;3.02;;;2.02;;
37303;SDS011;23188;51.188;16.374;2022-10-18T14:31:47;2.22;;;1.77;;
37303;SDS011;23188;51.188;16.374;2022-10-18T14:36:03;3.20;;;2.12;;
37303;SDS011;23188;51.188;16.374;2022-10-18T14:44:30;2.35;;;1.77;;
37303;SDS011;23188;51.188;16.374;2022-10-18T14:48:31;2.92;;;1.50;;
37303;SDS011;23188;51.188;16.374;2022-10-18T14:52:32;2.05;;;1.57;;
37303;SDS011;23188;51.188;16.374;2022-10-18T14:56:37;3.15;;;1.87;;
37303;SDS011;23188;51.188;16.374;2022-10-18T15:00:40;1.80;;;1.70;;
37303;SDS011;23188;51.188;16.374;2022-10-18T15:04:45;1.67;;;1.40;;
37303;SDS011;23188;51.188;16.374;2022-10-18T15:08:50;1.90;;;1.57;;
37303;SDS011;23188;51.188;16.374;2022-10-18T15:12:58;5.12;;;2.72;;
37303;SDS011;23188;51.188;16.374;2022-10-18T15:17:23;3.77;;;2.08;;
37303;SDS011;23188;51.188;16.374;2022-10-18T15:21:26;3.17;;;1.87;;
37303;SDS011;23188;51.188;16.374;2022-10-18T15:25:28;3.77;;;1.60;;
37303;SDS011;23188;51.188;16.374;2022-10-18T15:29:32;1.52;;;1.42;;
37303;SDS011;23188;51.188;16.374;2022-10-18T15:33:36;3.62;;;1.77;;
37303;SDS011;23188;51.188;16.374;2022-10-18T15:37:41;3.37;;;1.60;;
37303;SDS011;23188;51.188;16.374;2022-10-18T15:45:58;3.90;;;3.15;;
37303;SDS011;23188;51.188;16.374;2022-10-18T15:50:03;4.55;;;3.35;;
37303;SDS011;23188;51.188;16.374;2022-10-18T15:54:04;4.00;;;3.02;;
37303;SDS011;23188;51.188;16.374;2022-10-18T15:58:11;2.42;;;1.77;;
37303;SDS011;23188;51.188;16.374;2022-10-18T16:02:31;2.27;;;1.87;;
37303;SDS011;23188;51.188;16.374;2022-10-18T16:06:32;1.95;;;1.72;;
37303;SDS011;23188;51.188;16.374;2022-10-18T16:14:41;4.22;;;2.40;;
37303;SDS011;23188;51.188;16.374;2022-10-18T16:18:42;2.52;;;2.10;;
37303;SDS011;23188;51.188;16.374;2022-10-18T16:22:43;3.27;;;2.08;;
37303;SDS011;23188;51.188;16.374;2022-10-18T16:26:47;3.35;;;2.45;;
37303;SDS011;23188;51.188;16.374;2022-10-18T16:30:55;3.35;;;3.05;;
37303;SDS011;23188;51.188;16.374;2022-10-18T16:35:00;5.10;;;3.80;;
37303;SDS011;23188;51.188;16.374;2022-10-18T16:39:02;4.35;;;3.62;;
37303;SDS011;23188;51.188;16.374;2022-10-18T16:43:09;6.28;;;3.92;;
37303;SDS011;23188;51.188;16.374;2022-10-18T16:47:10;4.80;;;4.40;;
37303;SDS011;23188;51.188;16.374;2022-10-18T16:51:11;9.35;;;6.20;;
37303;SDS011;23188;51.188;16.374;2022-10-18T16:55:12;10.90;;;7.95;;
37303;SDS011;23188;51.188;16.374;2022-10-18T16:59:23;10.03;;;7.03;;
37303;SDS011;23188;51.188;16.374;2022-10-18T17:03:28;11.93;;;7.92;;
37303;SDS011;23188;51.188;16.374;2022-10-18T17:07:29;10.25;;;8.38;;
37303;SDS011;23188;51.188;16.374;2022-10-18T17:11:33;10.90;;;7.10;;
37303;SDS011;23188;51.188;16.374;2022-10-18T17:15:34;23.77;;;7.92;;
37303;SDS011;23188;51.188;16.374;2022-10-18T17:19:36;7.87;;;5.85;;
37303;SDS011;23188;51.188;16.374;2022-10-18T17:23:37;10.15;;;7.17;;
37303;SDS011;23188;51.188;16.374;2022-10-18T17:27:38;9.18;;;6.30;;
37303;SDS011;23188;51.188;16.374;2022-10-18T17:31:39;10.70;;;6.83;;
37303;SDS011;23188;51.188;16.374;2022-10-18T17:35:40;10.53;;;7.20;;
37303;SDS011;23188;51.188;16.374;2022-10-18T17:39:43;8.75;;;6.12;;
37303;SDS011;23188;51.188;16.374;2022-10-18T17:43:44;8.50;;;6.17;;
37303;SDS011;23188;51.188;16.374;2022-10-18T17:47:47;8.63;;;6.45;;
37303;SDS011;23188;51.188;16.374;2022-10-18T17:51:48;9.45;;;6.65;;
37303;SDS011;23188;51.188;16.374;2022-10-18T17:55:55;9.45;;;7.00;;
37303;SDS011;23188;51.188;16.374;2022-10-18T17:59:59;9.43;;;6.25;;
37303;SDS011;23188;51.188;16.374;2022-10-18T18:04:02;9.60;;;6.83;;
37303;SDS011;23188;51.188;16.374;2022-10-18T18:08:03;10.05;;;6.60;;
37303;SDS011;23188;51.188;16.374;2022-10-18T18:12:05;13.20;;;7.67;;
37303;SDS011;23188;51.188;16.374;2022-10-18T18:16:10;9.60;;;7.72;;
37303;SDS011;23188;51.188;16.374;2022-10-18T18:20:17;10.63;;;7.30;;
37303;SDS011;23188;51.188;16.374;2022-10-18T18:24:20;10.72;;;8.25;;
37303;SDS011;23188;51.188;16.374;2022-10-18T18:28:24;8.70;;;7.53;;
37303;SDS011;23188;51.188;16.374;2022-10-18T18:32:25;8.23;;;7.15;;
37303;SDS011;23188;51.188;16.374;2022-10-18T18:36:26;8.38;;;7.37;;
37303;SDS011;23188;51.188;16.374;2022-10-18T18:40:28;11.57;;;8.20;;
37303;SDS011;23188;51.188;16.374;2022-10-18T18:44:30;11.65;;;8.65;;
37303;SDS011;23188;51.188;16.374;2022-10-18T18:48:33;11.25;;;8.70;;
37303;SDS011;23188;51.188;16.374;2022-10-18T18:52:36;9.48;;;7.45;;
37303;SDS011;23188;51.188;16.374;2022-10-18T18:56:37;9.73;;;7.20;;
37303;SDS011;23188;51.188;16.374;2022-10-18T19:00:40;12.33;;;7.10;;
37303;SDS011;23188;51.188;16.374;2022-10-18T19:04:41;10.72;;;7.25;;
37303;SDS011;23188;51.188;16.374;2022-10-18T19:08:43;9.78;;;8.08;;
37303;SDS011;23188;51.188;16.374;2022-10-18T19:12:45;9.40;;;8.43;;
37303;SDS011;23188;51.188;16.374;2022-10-18T19:16:50;10.70;;;9.18;;
37303;SDS011;23188;51.188;16.374;2022-10-18T19:20:53;10.00;;;8.35;;
37303;SDS011;23188;51.188;16.374;2022-10-18T19:24:54;11.80;;;8.05;;
37303;SDS011;23188;51.188;16.374;2022-10-18T19:28:59;14.15;;;7.78;;
37303;SDS011;23188;51.188;16.374;2022-10-18T19:33:08;10.28;;;7.35;;
37303;SDS011;23188;51.188;16.374;2022-10-18T19:37:11;11.95;;;9.83;;
37303;SDS011;23188;51.188;16.374;2022-10-18T19:41:14;12.15;;;8.80;;
37303;SDS011;23188;51.188;16.374;2022-10-18T19:45:16;12.28;;;8.28;;
37303;SDS011;23188;51.188;16.374;2022-10-18T19:49:17;11.35;;;7.65;;
37303;SDS011;23188;51.188;16.374;2022-10-18T19:53:19;8.25;;;7.35;;
37303;SDS011;23188;51.188;16.374;2022-10-18T19:57:20;11.30;;;9.75;;
37303;SDS011;23188;51.188;16.374;2022-10-18T20:01:21;13.98;;;8.98;;
37303;SDS011;23188;51.188;16.374;2022-10-18T20:05:23;12.15;;;8.43;;
37303;SDS011;23188;51.188;16.374;2022-10-18T20:09:24;9.38;;;6.78;;
37303;SDS011;23188;51.188;16.374;2022-10-18T20:13:25;9.28;;;7.85;;
37303;SDS011;23188;51.188;16.374;2022-10-18T20:17:27;9.38;;;8.18;;
37303;SDS011;23188;51.188;16.374;2022-10-18T20:21:28;8.35;;;6.92;;
37303;SDS011;23188;51.188;16.374;2022-10-18T20:25:34;7.95;;;7.15;;
37303;SDS011;23188;51.188;16.374;2022-10-18T20:29:35;9.33;;;7.62;;
37303;SDS011;23188;51.188;16.374;2022-10-18T20:33:36;7.70;;;6.58;;
37303;SDS011;23188;51.188;16.374;2022-10-18T20:37:37;7.65;;;6.75;;
37303;SDS011;23188;51.188;16.374;2022-10-18T20:41:39;9.58;;;7.90;;
37303;SDS011;23188;51.188;16.374;2022-10-18T20:45:43;9.18;;;6.75;;
37303;SDS011;23188;51.188;16.374;2022-10-18T20:49:44;7.70;;;6.92;;
37303;SDS011;23188;51.188;16.374;2022-10-18T20:53:45;9.30;;;6.85;;
37303;SDS011;23188;51.188;16.374;2022-10-18T20:57:47;11.45;;;7.28;;
37303;SDS011;23188;51.188;16.374;2022-10-18T21:01:49;13.35;;;8.50;;
37303;SDS011;23188;51.188;16.374;2022-10-18T21:05:50;9.95;;;7.30;;
37303;SDS011;23188;51.188;16.374;2022-10-18T21:09:52;12.03;;;6.53;;
37303;SDS011;23188;51.188;16.374;2022-10-18T21:13:58;10.05;;;7.80;;
37303;SDS011;23188;51.188;16.374;2022-10-18T21:17:59;8.98;;;6.65;;
37303;SDS011;23188;51.188;16.374;2022-10-18T21:22:01;7.58;;;6.85;;
37303;SDS011;23188;51.188;16.374;2022-10-18T21:26:02;9.98;;;5.25;;
37303;SDS011;23188;51.188;16.374;2022-10-18T21:30:04;12.15;;;7.40;;
37303;SDS011;23188;51.188;16.374;2022-10-18T21:34:08;8.63;;;5.90;;
37303;SDS011;23188;51.188;16.374;2022-10-18T21:38:18;7.00;;;5.90;;
37303;SDS011;23188;51.188;16.374;2022-10-18T21:42:24;13.72;;;8.00;;
37303;SDS011;23188;51.188;16.374;2022-10-18T21:46:25;8.88;;;7.75;;
37303;SDS011;23188;51.188;16.374;2022-10-18T21:50:27;10.65;;;7.58;;
37303;SDS011;23188;51.188;16.374;2022-10-18T21:54:29;13.03;;;8.33;;
37303;SDS011;23188;51.188;16.374;2022-10-18T21:58:31;11.05;;;9.10;;
37303;SDS011;23188;51.188;16.374;2022-10-18T22:02:32;8.78;;;7.75;;
37303;SDS011;23188;51.188;16.374;2022-10-18T22:06:34;10.95;;;8.58;;
37303;SDS011;23188;51.188;16.374;2022-10-18T22:10:50;7.65;;;6.95;;
37303;SDS011;23188;51.188;16.374;2022-10-18T22:18:46;10.10;;;7.20;;
37303;SDS011;23188;51.188;16.374;2022-10-18T22:22:51;9.33;;;7.33;;
37303;SDS011;23188;51.188;16.374;2022-10-18T22:26:55;10.72;;;8.53;;
37303;SDS011;23188;51.188;16.374;2022-10-18T22:30:59;11.18;;;7.20;;
37303;SDS011;23188;51.188;16.374;2022-10-18T22:35:03;11.75;;;8.45;;
37303;SDS011;23188;51.188;16.374;2022-10-18T22:39:09;11.33;;;7.15;;
37303;SDS011;23188;51.188;16.374;2022-10-18T22:43:20;8.65;;;6.92;;
37303;SDS011;23188;51.188;16.374;2022-10-18T22:47:21;9.75;;;7.10;;
37303;SDS011;23188;51.188;16.374;2022-10-18T22:51:23;11.05;;;9.23;;
37303;SDS011;23188;51.188;16.374;2022-10-18T22:55:25;11.45;;;8.55;;
37303;SDS011;23188;51.188;16.374;2022-10-18T22:59:26;8.73;;;6.40;;
37303;SDS011;23188;51.188;16.374;2022-10-18T23:03:27;13.13;;;9.38;;
37303;SDS011;23188;51.188;16.374;2022-10-18T23:07:29;8.88;;;7.33;;
37303;SDS011;23188;51.188;16.374;2022-10-18T23:11:30;14.05;;;7.80;;
37303;SDS011;23188;51.188;16.374;2022-10-18T23:15:32;11.18;;;9.08;;
37303;SDS011;23188;51.188;16.374;2022-10-18T23:19:42;14.95;;;11.33;;
37303;SDS011;23188;51.188;16.374;2022-10-18T23:23:43;15.85;;;9.85;;
37303;SDS011;23188;51.188;16.374;2022-10-18T23:27:48;12.10;;;9.48;;
37303;SDS011;23188;51.188;16.374;2022-10-18T23:32:04;17.85;;;9.75;;
37303;SDS011;23188;51.188;16.374;2022-10-18T23:40:09;15.63;;;10.18;;
37303;SDS011;23188;51.188;16.374;2022-10-18T23:44:13;13.40;;;11.38;;
37303;SDS011;23188;51.188;16.374;2022-10-18T23:48:16;20.25;;;13.60;;
